createdAt,value
2019-05-11T00:00:34.492Z,22.53
2019-05-11T00:03:07.059Z,22.52
2019-05-11T00:05:39.087Z,22.49
2019-05-11T00:08:11.335Z,22.50
2019-05-11T00:10:43.576Z,22.49
2019-05-11T00:13:15.763Z,22.48
2019-05-11T00:15:51.279Z,22.45
2019-05-11T00:18:23.390Z,22.43
2019-05-11T00:20:55.657Z,22.42
2019-05-11T00:23:27.819Z,22.40
2019-05-11T00:26:00.094Z,22.34
2019-05-11T00:28:32.389Z,22.30
2019-05-11T00:31:05.409Z,22.25
2019-05-11T00:33:37.574Z,22.21
2019-05-11T00:36:09.601Z,22.16
2019-05-11T00:38:41.832Z,22.12
2019-05-11T00:41:14.026Z,22.08
2019-05-11T00:43:46.060Z,22.06
2019-05-11T00:46:18.526Z,22.04
2019-05-11T00:48:50.650Z,22.02
2019-05-11T00:51:22.962Z,21.99
2019-05-11T00:53:55.823Z,21.96
2019-05-11T00:56:28.143Z,21.94
2019-05-11T00:59:00.425Z,21.93
2019-05-11T01:01:32.858Z,21.92
2019-05-11T01:04:05.177Z,21.90
2019-05-11T01:06:37.766Z,21.89
2019-05-11T01:09:10.586Z,21.88
2019-05-11T01:11:42.959Z,21.85
2019-05-11T01:14:15.258Z,21.84
2019-05-11T01:16:49.466Z,21.82
2019-05-11T01:19:24.508Z,21.81
2019-05-11T01:21:56.765Z,21.78
2019-05-11T01:24:29.099Z,21.76
2019-05-11T01:27:03.975Z,21.73
2019-05-11T01:29:36.236Z,21.72
2019-05-11T01:32:08.718Z,21.71
2019-05-11T01:34:40.866Z,21.70
2019-05-11T01:37:13.064Z,21.67
2019-05-11T01:39:45.354Z,21.64
2019-05-11T01:42:17.402Z,21.62
2019-05-11T01:44:49.616Z,21.61
2019-05-11T01:47:21.750Z,21.58
2019-05-11T01:49:53.959Z,21.55
2019-05-11T01:52:26.247Z,21.53
2019-05-11T01:54:58.294Z,21.53
2019-05-11T01:57:30.606Z,21.54
2019-05-11T02:00:03.323Z,21.55
2019-05-11T02:02:35.588Z,21.55
2019-05-11T02:05:25.160Z,21.54
2019-05-11T02:07:57.336Z,21.55
2019-05-11T02:10:29.724Z,21.55
2019-05-11T02:13:02.284Z,21.56
2019-05-11T02:15:34.799Z,21.56
2019-05-11T02:18:07.175Z,21.59
2019-05-11T02:20:39.276Z,21.60
2019-05-11T02:23:11.433Z,21.61
2019-05-11T02:25:43.652Z,21.63
2019-05-11T02:28:15.909Z,21.64
2019-05-11T02:30:48.231Z,21.64
2019-05-11T02:33:20.783Z,21.65
2019-05-11T02:35:53.129Z,21.66
2019-05-11T02:38:25.324Z,21.67
2019-05-11T02:40:57.474Z,21.70
2019-05-11T02:43:29.633Z,21.71
2019-05-11T02:46:03.775Z,21.70
2019-05-11T02:48:36.383Z,21.70
2019-05-11T02:51:09.805Z,21.71
2019-05-11T02:53:43.920Z,21.71
2019-05-11T02:56:16.163Z,21.67
2019-05-11T02:58:48.394Z,21.66
2019-05-11T03:01:20.821Z,21.67
2019-05-11T03:03:53.343Z,21.68
2019-05-11T03:06:25.596Z,21.69
2019-05-11T03:08:57.649Z,21.71
2019-05-11T03:11:29.813Z,21.72
2019-05-11T03:14:02.366Z,21.73
2019-05-11T03:16:35.002Z,21.75
2019-05-11T03:19:07.155Z,21.76
2019-05-11T03:21:39.324Z,21.75
2019-05-11T03:24:11.492Z,21.76
2019-05-11T03:26:43.701Z,21.76
2019-05-11T03:29:17.883Z,21.76
2019-05-11T03:31:50.194Z,21.77
2019-05-11T03:34:22.287Z,21.78
2019-05-11T03:36:54.558Z,21.77
2019-05-11T03:39:26.955Z,21.77
2019-05-11T03:42:13.210Z,21.75
2019-05-11T03:44:33.534Z,21.76
2019-05-11T03:47:06.082Z,21.75
2019-05-11T03:49:38.381Z,21.74
2019-05-11T03:52:10.452Z,21.74
2019-05-11T03:54:42.647Z,21.71
2019-05-11T03:57:14.786Z,21.70
2019-05-11T03:59:47.086Z,21.70
2019-05-11T04:02:19.268Z,21.70
2019-05-11T04:04:51.749Z,21.71
2019-05-11T04:07:24.220Z,21.73
2019-05-11T04:09:56.521Z,21.74
2019-05-11T04:12:34.818Z,21.76
2019-05-11T04:15:03.438Z,21.78
2019-05-11T04:17:35.629Z,21.80
2019-05-11T04:20:08.067Z,21.83
2019-05-11T04:22:40.350Z,21.85
2019-05-11T04:25:12.647Z,21.90
2019-05-11T04:27:45.059Z,21.93
2019-05-11T04:30:17.557Z,21.97
2019-05-11T04:32:49.842Z,21.99
2019-05-11T04:35:21.983Z,22.01
2019-05-11T04:37:54.131Z,22.03
2019-05-11T04:40:26.439Z,22.05
2019-05-11T04:42:58.673Z,22.06
2019-05-11T04:45:31.173Z,22.10
2019-05-11T04:48:06.916Z,22.15
2019-05-11T04:50:39.054Z,22.19
2019-05-11T04:53:11.346Z,22.32
2019-05-11T04:55:43.633Z,22.75
2019-05-11T04:58:16.269Z,23.37
2019-05-11T05:00:49.172Z,24.10
2019-05-11T05:03:21.735Z,24.79
2019-05-11T05:05:54.248Z,25.50
2019-05-11T05:08:27.995Z,26.25
2019-05-11T05:11:00.787Z,26.88
2019-05-11T05:13:33.322Z,27.51
2019-05-11T05:16:05.622Z,28.06
2019-05-11T05:18:38.060Z,28.53
2019-05-11T05:21:10.228Z,28.91
2019-05-11T05:23:42.534Z,29.26
2019-05-11T05:26:14.816Z,29.53
2019-05-11T05:28:47.314Z,29.84
2019-05-11T05:31:19.546Z,30.20
2019-05-11T05:33:51.687Z,30.50
2019-05-11T05:36:23.957Z,30.80
2019-05-11T05:38:56.019Z,31.06
2019-05-11T05:41:28.303Z,31.22
2019-05-11T05:44:00.540Z,31.35
2019-05-11T05:46:32.807Z,31.42
2019-05-11T05:49:04.874Z,31.55
2019-05-11T05:51:37.001Z,31.72
2019-05-11T05:54:09.136Z,31.75
2019-05-11T05:56:41.278Z,31.63
2019-05-11T05:59:13.530Z,31.57
2019-05-11T06:01:45.888Z,31.63
2019-05-11T06:04:18.097Z,31.72
2019-05-11T06:06:50.319Z,31.79
2019-05-11T06:09:22.495Z,31.79
2019-05-11T06:11:54.807Z,31.79
2019-05-11T06:14:26.982Z,31.81
2019-05-11T06:16:59.118Z,31.84
2019-05-11T06:19:31.346Z,31.89
2019-05-11T06:22:03.601Z,31.89
2019-05-11T06:24:35.833Z,31.91
2019-05-11T06:27:08.119Z,31.95
2019-05-11T06:29:40.154Z,31.96
2019-05-11T06:32:12.206Z,31.92
2019-05-11T06:34:44.463Z,31.85
2019-05-11T06:37:16.629Z,31.77
2019-05-11T06:39:49.225Z,31.74
2019-05-11T06:42:21.514Z,31.67
2019-05-11T06:44:53.860Z,31.54
2019-05-11T06:47:26.104Z,31.41
2019-05-11T06:49:58.516Z,31.29
2019-05-11T06:52:30.947Z,31.23
2019-05-11T06:55:03.490Z,31.26
2019-05-11T06:57:36.215Z,31.35
2019-05-11T07:00:09.525Z,31.44
2019-05-11T07:02:41.868Z,31.41
2019-05-11T07:05:14.286Z,31.35
2019-05-11T07:07:47.992Z,31.32
2019-05-11T07:10:20.417Z,31.30
2019-05-11T07:12:52.869Z,31.26
2019-05-11T07:15:25.088Z,31.27
2019-05-11T07:17:57.419Z,31.27
2019-05-11T07:20:29.871Z,31.23
2019-05-11T07:23:02.447Z,31.18
2019-05-11T07:25:34.671Z,31.12
2019-05-11T07:28:06.894Z,31.09
2019-05-11T07:30:39.266Z,31.02
2019-05-11T07:33:11.551Z,30.93
2019-05-11T07:35:43.774Z,30.77
2019-05-11T07:38:18.380Z,30.63
2019-05-11T07:40:50.810Z,30.53
2019-05-11T07:43:23.844Z,30.44
2019-05-11T07:45:58.424Z,30.31
2019-05-11T07:48:31.466Z,30.20
2019-05-11T07:51:03.647Z,30.19
2019-05-11T07:53:38.130Z,30.22
2019-05-11T07:56:10.201Z,30.25
2019-05-11T07:58:42.670Z,30.24
2019-05-11T08:01:14.896Z,30.24
2019-05-11T08:03:48.330Z,30.26
2019-05-11T08:06:21.388Z,30.30
2019-05-11T08:08:54.089Z,30.31
2019-05-11T08:11:30.703Z,30.19
2019-05-11T08:14:01.283Z,30.03
2019-05-11T08:16:33.913Z,29.86
2019-05-11T08:19:09.835Z,29.63
2019-05-11T08:21:40.858Z,29.42
2019-05-11T08:24:13.132Z,29.24
2019-05-11T08:26:47.856Z,29.12
2019-05-11T08:29:19.653Z,29.03
2019-05-11T08:31:51.923Z,28.98
2019-05-11T08:34:24.684Z,28.94
2019-05-11T08:36:58.358Z,28.89
2019-05-11T08:39:30.856Z,28.86
2019-05-11T08:42:03.512Z,28.79
2019-05-11T08:44:38.012Z,28.70
2019-05-11T08:47:10.147Z,28.63
2019-05-11T08:49:42.451Z,28.59
2019-05-11T08:52:14.659Z,28.54
2019-05-11T08:54:48.642Z,28.51
2019-05-11T08:57:21.155Z,28.49
2019-05-11T08:59:53.394Z,28.48
2019-05-11T09:02:27.648Z,28.47
2019-05-11T09:04:59.623Z,28.49
2019-05-11T09:07:31.963Z,28.45
2019-05-11T09:10:04.286Z,28.40
2019-05-11T09:12:38.203Z,28.38
2019-05-11T09:15:10.824Z,28.35
2019-05-11T09:17:42.971Z,28.35
2019-05-11T09:20:17.845Z,28.36
2019-05-11T09:22:49.535Z,28.38
2019-05-11T09:25:21.818Z,28.37
2019-05-11T09:27:54.038Z,28.35
2019-05-11T09:30:28.645Z,28.35
2019-05-11T09:33:00.173Z,28.38
2019-05-11T09:35:45.723Z,28.33
2019-05-11T09:38:08.051Z,28.27
2019-05-11T09:40:40.330Z,28.24
2019-05-11T09:43:12.383Z,28.22
2019-05-11T09:45:48.452Z,28.21
2019-05-11T09:48:18.413Z,28.17
2019-05-11T09:50:50.724Z,28.08
2019-05-11T09:53:22.940Z,27.95
2019-05-11T09:55:55.187Z,27.87
2019-05-11T09:58:28.083Z,27.81
2019-05-11T10:01:00.383Z,27.81
2019-05-11T10:03:32.691Z,27.80
2019-05-11T10:06:08.337Z,27.81
2019-05-11T10:08:40.796Z,27.79
2019-05-11T10:11:13.111Z,27.74
2019-05-11T10:13:47.614Z,27.67
2019-05-11T10:16:22.138Z,27.62
2019-05-11T10:18:54.670Z,27.65
2019-05-11T10:21:27.929Z,27.69
2019-05-11T10:24:00.390Z,27.76
2019-05-11T10:26:32.495Z,27.86
2019-05-11T10:29:07.711Z,27.89
2019-05-11T10:31:39.151Z,27.86
2019-05-11T10:34:11.722Z,27.87
2019-05-11T10:36:44.397Z,27.89
2019-05-11T10:39:18.706Z,27.94
2019-05-11T10:41:50.696Z,27.99
2019-05-11T10:44:23.168Z,28.01
2019-05-11T10:46:55.764Z,28.03
2019-05-11T10:49:28.846Z,28.01
2019-05-11T10:52:01.369Z,27.99
2019-05-11T10:54:33.706Z,28.00
2019-05-11T10:57:08.325Z,28.00
2019-05-11T10:59:39.944Z,28.08
2019-05-11T11:02:12.324Z,28.18
2019-05-11T11:04:44.572Z,28.25
2019-05-11T11:07:19.313Z,28.29
2019-05-11T11:09:50.734Z,28.33
2019-05-11T11:12:22.951Z,28.37
2019-05-11T11:14:55.132Z,28.43
2019-05-11T11:17:28.722Z,28.49
2019-05-11T11:20:02.768Z,28.51
2019-05-11T11:22:40.113Z,28.50
2019-05-11T11:25:08.910Z,28.50
2019-05-11T11:27:41.263Z,28.50
2019-05-11T11:30:13.816Z,28.51
2019-05-11T11:32:48.102Z,28.56
2019-05-11T11:35:19.906Z,28.57
2019-05-11T11:37:52.119Z,28.58
2019-05-11T11:40:24.424Z,28.60
2019-05-11T11:42:58.125Z,28.62
2019-05-11T11:45:30.552Z,28.64
2019-05-11T11:48:03.401Z,28.64
2019-05-11T11:50:37.765Z,28.65
2019-05-11T11:53:12.282Z,28.72
2019-05-11T11:55:48.154Z,28.76
2019-05-11T11:58:23.805Z,28.82
2019-05-11T12:00:55.093Z,28.86
2019-05-11T12:03:27.810Z,28.90
2019-05-11T12:06:00.249Z,28.94
2019-05-11T12:08:32.566Z,28.98
2019-05-11T12:11:04.963Z,29.01
2019-05-11T12:13:38.427Z,28.99
2019-05-11T12:16:11.007Z,28.98
2019-05-11T12:18:43.265Z,28.93
2019-05-11T12:21:15.624Z,28.87
2019-05-11T12:23:48.635Z,28.78
2019-05-11T12:29:38.405Z,28.62
2019-05-11T12:32:14.925Z,28.47
2019-05-11T12:34:48.677Z,28.46
2019-05-11T12:37:22.096Z,28.45
2019-05-11T12:39:54.776Z,28.44
2019-05-11T12:42:28.394Z,28.40
2019-05-11T12:45:02.300Z,28.37
2019-05-11T12:47:35.201Z,28.35
2019-05-11T12:50:09.232Z,28.30
2019-05-11T12:52:41.999Z,28.23
2019-05-11T12:55:14.725Z,28.22
2019-05-11T12:57:47.773Z,28.20
2019-05-11T13:00:21.870Z,28.19
2019-05-11T13:02:54.626Z,28.16
2019-05-11T13:05:28.534Z,28.13
2019-05-11T13:08:03.583Z,28.10
2019-05-11T13:10:37.648Z,28.09
2019-05-11T13:13:10.277Z,28.03
2019-05-11T13:15:42.652Z,27.96
2019-05-11T13:18:15.299Z,27.89
2019-05-11T13:20:48.381Z,27.85
2019-05-11T13:23:21.110Z,27.79
2019-05-11T13:25:53.795Z,27.72
2019-05-11T13:28:28.231Z,27.64
2019-05-11T13:31:00.555Z,27.55
2019-05-11T13:33:33.299Z,27.44
2019-05-11T13:36:05.736Z,27.31
2019-05-11T13:38:38.792Z,27.21
2019-05-11T13:41:11.832Z,27.15
2019-05-11T13:43:44.371Z,27.13
2019-05-11T13:46:18.029Z,27.06
2019-05-11T13:48:50.916Z,26.99
2019-05-11T13:51:23.376Z,26.93
2019-05-11T13:53:58.385Z,26.87
2019-05-11T13:56:32.308Z,26.82
2019-05-11T13:59:10.933Z,26.77
2019-05-11T14:01:43.528Z,26.74
2019-05-11T14:04:18.176Z,26.67
2019-05-11T14:06:50.795Z,26.62
2019-05-11T14:09:23.503Z,26.56
2019-05-11T14:11:58.226Z,26.49
2019-05-11T14:14:31.391Z,26.44
2019-05-11T14:17:03.971Z,26.38
2019-05-11T14:19:38.443Z,26.31
2019-05-11T14:22:10.688Z,26.26
2019-05-11T14:24:43.583Z,26.21
2019-05-11T14:27:17.816Z,26.17
2019-05-11T14:29:50.404Z,26.11
2019-05-11T14:32:23.447Z,26.07
2019-05-11T14:34:57.834Z,26.04
2019-05-11T14:37:30.553Z,26.01
2019-05-11T14:40:03.474Z,25.98
2019-05-11T14:42:37.639Z,25.98
2019-05-11T14:45:10.982Z,25.96
2019-05-11T14:47:43.688Z,25.97
2019-05-11T14:50:18.703Z,25.95
2019-05-11T14:52:50.822Z,25.95
2019-05-11T14:55:23.618Z,25.95
2019-05-11T14:57:57.680Z,25.98
2019-05-11T15:00:30.535Z,26.00
2019-05-11T15:03:03.138Z,26.01
2019-05-11T15:05:37.571Z,26.02
2019-05-11T15:08:10.483Z,26.03
2019-05-11T15:10:43.052Z,26.03
2019-05-11T15:13:15.704Z,26.04
2019-05-11T15:15:48.755Z,26.06
2019-05-11T15:18:34.964Z,26.07
2019-05-11T15:20:57.898Z,26.08
2019-05-11T15:23:30.061Z,26.09
2019-05-11T15:26:02.743Z,26.12
2019-05-11T15:28:37.799Z,26.11
2019-05-11T15:31:10.079Z,26.11
2019-05-11T15:33:42.587Z,26.07
2019-05-11T15:36:15.029Z,26.05
2019-05-11T15:38:48.158Z,26.01
2019-05-11T15:41:21.532Z,25.98
2019-05-11T15:43:54.243Z,25.95
2019-05-11T15:46:28.236Z,25.93
2019-05-11T15:49:03.402Z,25.90
2019-05-11T15:51:35.377Z,25.87
2019-05-11T15:54:08.030Z,25.86
2019-05-11T15:56:40.659Z,25.84
2019-05-11T15:59:13.129Z,25.85
2019-05-11T16:01:45.522Z,25.82
2019-05-11T16:04:18.308Z,25.80
2019-05-11T16:06:50.822Z,25.76
2019-05-11T16:09:23.560Z,25.73
2019-05-11T16:11:56.210Z,25.72
2019-05-11T16:14:29.250Z,25.70
2019-05-11T16:17:01.730Z,25.66
2019-05-11T16:19:34.677Z,25.63
2019-05-11T16:22:09.863Z,25.59
2019-05-11T16:24:42.176Z,25.54
2019-05-11T16:27:15.251Z,25.50
2019-05-11T16:29:47.997Z,25.47
2019-05-11T16:32:21.120Z,25.42
2019-05-11T16:34:53.785Z,25.36
2019-05-11T16:37:28.717Z,25.31
2019-05-11T16:40:00.449Z,25.26
2019-05-11T16:42:33.055Z,25.22
2019-05-11T16:45:08.340Z,25.18
2019-05-11T16:47:40.124Z,25.14
2019-05-11T16:50:13.018Z,25.10
2019-05-11T16:52:47.908Z,25.06
2019-05-11T16:55:19.858Z,25.04
2019-05-11T16:57:52.720Z,25.01
2019-05-11T17:00:25.422Z,24.99
2019-05-11T17:02:57.871Z,24.96
2019-05-11T17:05:33.705Z,24.93
2019-05-11T17:08:04.738Z,24.89
2019-05-11T17:10:37.485Z,24.86
2019-05-11T17:13:10.002Z,24.84
2019-05-11T17:15:42.620Z,24.80
2019-05-11T17:18:15.183Z,24.78
2019-05-11T17:20:48.042Z,24.74
2019-05-11T17:23:20.557Z,24.73
2019-05-11T17:25:53.075Z,24.70
2019-05-11T17:28:27.950Z,24.68
2019-05-11T17:31:03.011Z,24.65
2019-05-11T17:33:35.300Z,24.63
2019-05-11T17:36:08.555Z,24.60
2019-05-11T17:38:41.137Z,24.58
2019-05-11T17:41:13.639Z,24.56
2019-05-11T17:43:48.006Z,24.55
2019-05-11T17:46:20.439Z,24.58
2019-05-11T17:48:52.909Z,24.59
2019-05-11T17:51:25.767Z,24.60
2019-05-11T17:53:59.716Z,24.62
2019-05-11T17:56:32.375Z,24.64
2019-05-11T17:59:07.858Z,24.65
2019-05-11T18:01:39.652Z,24.65
2019-05-11T18:04:12.553Z,24.65
2019-05-11T18:06:48.482Z,24.66
2019-05-11T18:09:21.847Z,24.68
2019-05-11T18:11:58.096Z,24.69
2019-05-11T18:14:30.094Z,24.69
2019-05-11T18:17:02.782Z,24.68
2019-05-11T18:19:35.275Z,24.67
2019-05-11T18:22:08.312Z,24.66
2019-05-11T18:24:41.159Z,24.66
2019-05-11T18:27:14.555Z,24.67
2019-05-11T18:29:48.589Z,24.68
2019-05-11T18:32:24.339Z,24.69
2019-05-11T18:34:58.833Z,24.70
2019-05-11T18:37:31.108Z,24.71
2019-05-11T18:40:03.613Z,24.72
2019-05-11T18:42:38.539Z,24.72
2019-05-11T18:45:15.412Z,24.71
2019-05-11T18:47:49.357Z,24.72
2019-05-11T18:50:30.457Z,24.73
2019-05-11T18:52:58.125Z,24.72
2019-05-11T18:55:31.185Z,24.73
2019-05-11T18:58:04.054Z,24.74
2019-05-11T19:00:38.155Z,24.73
2019-05-11T19:03:11.444Z,24.71
2019-05-11T19:05:47.855Z,24.70
2019-05-11T19:08:20.019Z,24.70
2019-05-11T19:10:57.799Z,24.71
2019-05-11T19:13:34.257Z,24.70
2019-05-11T19:16:14.206Z,24.70
2019-05-11T19:18:48.051Z,24.70
2019-05-11T19:21:21.327Z,24.69
2019-05-11T19:24:00.805Z,24.69
2019-05-11T19:26:35.952Z,24.68
2019-05-11T19:29:13.421Z,24.66
2019-05-11T19:31:47.993Z,24.64
2019-05-11T19:34:21.081Z,24.65
2019-05-11T19:36:54.236Z,24.65
2019-05-11T19:39:30.729Z,24.65
2019-05-11T19:42:07.914Z,24.64
2019-05-11T19:44:50.322Z,24.62
2019-05-11T19:47:24.806Z,24.60
2019-05-11T19:50:01.330Z,24.59
2019-05-11T19:52:35.144Z,24.59
2019-05-11T19:55:08.994Z,24.60
2019-05-11T19:57:42.515Z,24.59
2019-05-11T20:00:18.363Z,24.60
2019-05-11T20:02:51.433Z,24.61
2019-05-11T20:05:23.881Z,24.61
2019-05-11T20:07:58.312Z,24.60
2019-05-11T20:10:30.656Z,24.60
2019-05-11T20:13:03.228Z,24.58
2019-05-11T20:15:37.936Z,24.54
2019-05-11T20:18:09.923Z,24.50
2019-05-11T20:20:42.253Z,24.49
2019-05-11T20:23:14.862Z,24.48
2019-05-11T20:25:47.873Z,24.47
2019-05-11T20:28:21.317Z,24.48
2019-05-11T20:30:53.748Z,24.48
2019-05-11T20:33:27.989Z,24.45
2019-05-11T20:36:00.657Z,24.44
2019-05-11T20:38:33.523Z,24.43
2019-05-11T20:41:08.302Z,24.42
2019-05-11T20:43:41.023Z,24.39
2019-05-11T20:46:13.532Z,24.39
2019-05-11T20:48:46.001Z,24.37
2019-05-11T20:51:32.804Z,24.36
2019-05-11T20:53:53.037Z,24.35
2019-05-11T20:56:25.561Z,24.33
2019-05-11T20:58:59.510Z,24.29
2019-05-11T21:01:32.440Z,24.26
2019-05-11T21:04:04.876Z,24.24
2019-05-11T21:06:39.140Z,24.22
2019-05-11T21:09:11.537Z,24.20
2019-05-11T21:11:44.059Z,24.17
2019-05-11T21:14:18.195Z,24.15
2019-05-11T21:16:50.838Z,24.13
2019-05-11T21:19:23.274Z,24.12
2019-05-11T21:21:58.765Z,24.10
2019-05-11T21:24:29.917Z,24.10
2019-05-11T21:27:02.429Z,24.09
2019-05-11T21:29:34.929Z,24.09
2019-05-11T21:32:08.089Z,24.08
2019-05-11T21:34:40.803Z,24.07
2019-05-11T21:37:13.322Z,24.06
2019-05-11T21:39:45.779Z,24.03
2019-05-11T21:42:18.283Z,24.02
2019-05-11T21:44:51.029Z,24.01
2019-05-11T21:47:24.034Z,24.00
2019-05-11T21:49:57.778Z,23.97
2019-05-11T21:52:30.521Z,23.94
2019-05-11T21:55:03.224Z,23.93
2019-05-11T21:57:35.821Z,23.92
2019-05-11T22:00:11.544Z,23.91
2019-05-11T22:02:44.091Z,23.91
2019-05-11T22:05:18.324Z,23.91
2019-05-11T22:07:50.679Z,23.93
2019-05-11T22:10:23.676Z,23.93
2019-05-11T22:12:56.030Z,23.92
2019-05-11T22:15:30.762Z,23.90
2019-05-11T22:18:02.765Z,23.90
2019-05-11T22:20:35.214Z,23.90
2019-05-11T22:23:08.422Z,23.89
2019-05-11T22:25:41.175Z,23.88
2019-05-11T22:28:14.337Z,23.86
2019-05-11T22:30:48.376Z,23.87
2019-05-11T22:33:21.018Z,23.88
2019-05-11T22:35:53.816Z,23.89
2019-05-11T22:38:30.068Z,23.89
2019-05-11T22:41:00.686Z,23.87
2019-05-11T22:43:33.085Z,23.85
2019-05-11T22:46:05.509Z,23.84
2019-05-11T22:48:38.242Z,23.85
2019-05-11T22:51:11.064Z,23.87
2019-05-11T22:53:47.410Z,23.88
2019-05-11T22:56:20.152Z,23.89
2019-05-11T22:58:52.459Z,23.89
2019-05-11T23:01:24.889Z,23.86
2019-05-11T23:03:58.611Z,23.86
2019-05-11T23:06:31.478Z,23.88
2019-05-11T23:09:04.569Z,23.86
2019-05-11T23:11:37.949Z,23.85
2019-05-11T23:14:11.332Z,23.82
2019-05-11T23:16:43.905Z,23.81
2019-05-11T23:19:18.259Z,23.81
2019-05-11T23:21:51.104Z,23.80
2019-05-11T23:24:24.147Z,23.78
2019-05-11T23:26:57.185Z,23.75
2019-05-11T23:29:49.011Z,23.76
2019-05-11T23:32:22.324Z,23.77
2019-05-11T23:34:55.096Z,23.75
2019-05-11T23:37:27.954Z,23.73
2019-05-11T23:40:00.814Z,23.72
2019-05-11T23:42:33.718Z,23.73
2019-05-11T23:45:08.426Z,23.72
2019-05-11T23:47:42.761Z,23.71
2019-05-11T23:50:18.960Z,23.71
2019-05-11T23:53:05.592Z,23.70
2019-05-11T23:55:25.445Z,23.69
2019-05-11T23:57:57.870Z,23.69
